Time;durP1;ratioP1;P1;durP2;ratioP2;P2;SDS_P1;SDS_P2;PMS_P1;PMS_P2;Temp;Humidity;BMP_temperature;BMP_pressure;BME280_temperature;BME280_humidity;BME280_pressure;Samples;Min_cycle;Max_cycle;Signal;HPM_P1;HPM_P2
2023/03/23 00:01:12;;;;;;;6.30;4.20;;;11.30;99.90;;;;;;4978537;28;20462;-81
2023/03/23 00:03:42;;;;;;;5.77;3.43;;;11.30;99.90;;;;;;4977793;28;20527;-82
2023/03/23 00:06:10;;;;;;;7.63;4.17;;;11.30;99.90;;;;;;4977744;28;20536;-79
2023/03/23 00:08:45;;;;;;;4.60;3.77;;;11.40;99.90;;;;;;4977957;28;20461;-82
2023/03/23 00:11:14;;;;;;;6.20;4.57;;;11.40;99.90;;;;;;4977724;28;20506;-82
2023/03/23 00:13:42;;;;;;;4.17;3.30;;;11.40;99.90;;;;;;4977872;28;20479;-80
2023/03/23 00:16:16;;;;;;;5.20;4.10;;;11.30;99.90;;;;;;4977734;28;20457;-82
2023/03/23 00:18:45;;;;;;;5.10;3.80;;;11.30;99.90;;;;;;4977066;28;20463;-81
2023/03/23 00:21:12;;;;;;;5.90;3.87;;;11.30;99.90;;;;;;4977652;28;20460;-81
2023/03/23 00:23:39;;;;;;;6.53;3.70;;;11.30;99.90;;;;;;4977795;28;20472;-82
2023/03/23 00:26:06;;;;;;;3.57;3.00;;;11.30;99.90;;;;;;4976962;28;20486;-81
2023/03/23 00:28:33;;;;;;;6.10;3.40;;;11.30;99.90;;;;;;4977666;28;20550;-79
2023/03/23 00:31:02;;;;;;;7.63;3.63;;;11.30;99.90;;;;;;4977942;28;20518;-80
2023/03/23 00:33:33;;;;;;;3.43;2.87;;;11.30;99.90;;;;;;4978610;28;20522;-82
2023/03/23 00:36:01;;;;;;;4.60;2.90;;;11.30;99.90;;;;;;4979428;28;20455;-79
2023/03/23 00:38:28;;;;;;;7.10;2.83;;;11.40;99.90;;;;;;4963038;28;20498;-81
2023/03/23 00:40:57;;;;;;;4.00;2.97;;;11.40;99.90;;;;;;4978166;28;20985;-82
2023/03/23 00:43:28;;;;;;;3.10;2.50;;;11.40;99.90;;;;;;4977674;28;20475;-81
2023/03/23 00:46:00;;;;;;;4.53;2.40;;;11.40;99.90;;;;;;4976840;28;20520;-84
2023/03/23 00:48:29;;;;;;;2.80;2.33;;;11.40;99.90;;;;;;4977913;28;20467;-83
2023/03/23 00:50:56;;;;;;;3.63;2.83;;;11.40;99.90;;;;;;4977462;28;20460;-83
2023/03/23 00:53:24;;;;;;;3.33;2.10;;;11.50;99.90;;;;;;4977616;28;20787;-80
2023/03/23 00:55:51;;;;;;;3.43;2.40;;;11.50;99.90;;;;;;4977191;28;20451;-81
2023/03/23 00:58:18;;;;;;;4.83;3.30;;;11.50;99.90;;;;;;4977971;28;20544;-83
2023/03/23 01:00:45;;;;;;;4.10;2.40;;;11.50;99.90;;;;;;4977520;28;20457;-80
2023/03/23 01:03:17;;;;;;;4.53;2.70;;;11.60;99.90;;;;;;4978010;28;20562;-81
2023/03/23 01:05:46;;;;;;;5.03;2.50;;;11.60;99.90;;;;;;4977917;28;20494;-82
2023/03/23 01:08:16;;;;;;;9.13;2.57;;;11.60;99.90;;;;;;4977483;28;20907;-80
2023/03/23 01:10:46;;;;;;;3.97;2.73;;;11.60;99.90;;;;;;4977639;28;20459;-81
2023/03/23 01:13:13;;;;;;;6.63;2.80;;;11.60;99.90;;;;;;4977815;28;21027;-81
2023/03/23 01:15:41;;;;;;;4.83;3.17;;;11.60;99.90;;;;;;4977758;28;20547;-82
2023/03/23 01:18:09;;;;;;;3.30;2.50;;;11.60;99.90;;;;;;4977644;28;20460;-81
2023/03/23 01:20:36;;;;;;;8.80;2.40;;;11.60;99.90;;;;;;4976850;28;20846;-79
2023/03/23 01:23:04;;;;;;;2.40;1.90;;;11.60;99.90;;;;;;4976868;28;20448;-83
2023/03/23 01:25:32;;;;;;;3.50;2.40;;;11.60;99.90;;;;;;4975786;28;20460;-81
2023/03/23 01:28:01;;;;;;;4.70;2.17;;;11.50;99.90;;;;;;4976299;28;20455;-81
2023/03/23 01:30:27;;;;;;;3.37;1.77;;;11.50;99.90;;;;;;4975972;28;20840;-81
2023/03/23 01:32:55;;;;;;;3.07;2.00;;;11.50;99.90;;;;;;4976592;28;20460;-80
2023/03/23 01:35:22;;;;;;;6.60;2.03;;;11.50;99.90;;;;;;4976749;28;20446;-80
2023/03/23 01:37:49;;;;;;;3.60;1.97;;;11.60;99.90;;;;;;4976867;28;20999;-80
2023/03/23 01:40:17;;;;;;;3.37;2.07;;;11.50;99.90;;;;;;4976736;28;20540;-81
2023/03/23 01:42:44;;;;;;;4.83;2.90;;;11.50;99.90;;;;;;4975703;28;20451;-80
2023/03/23 01:45:29;;;;;;;5.97;3.03;;;11.50;99.90;;;;;;4976104;28;20488;-81
2023/03/23 01:48:07;;;;;;;3.90;2.87;;;11.50;99.90;;;;;;4975724;28;20483;-83
2023/03/23 01:50:41;;;;;;;3.40;2.27;;;11.50;99.90;;;;;;4976134;28;20440;-77
2023/03/23 01:53:10;;;;;;;2.80;2.00;;;11.50;99.90;;;;;;4975980;28;20486;-79
2023/03/23 01:55:40;;;;;;;4.60;2.50;;;11.50;99.90;;;;;;4976758;28;20586;-80
2023/03/23 01:58:08;;;;;;;4.00;2.70;;;11.50;99.90;;;;;;4980304;28;20451;-79
2023/03/23 02:00:40;;;;;;;2.93;2.30;;;11.50;99.90;;;;;;4980609;28;20882;-79
2023/03/23 02:03:10;;;;;;;5.60;2.23;;;11.40;99.90;;;;;;4981345;28;20524;-81
2023/03/23 02:05:40;;;;;;;3.43;2.37;;;11.40;99.90;;;;;;4981622;28;20460;-80
2023/03/23 02:08:08;;;;;;;5.50;2.47;;;11.40;99.90;;;;;;4980631;28;20455;-79
2023/03/23 02:10:36;;;;;;;2.13;1.63;;;11.40;99.90;;;;;;4979716;28;20477;-81
2023/03/23 02:13:06;;;;;;;5.27;1.73;;;11.40;99.90;;;;;;4980406;28;20456;-80
2023/03/23 02:15:44;;;;;;;4.53;1.50;;;11.40;99.90;;;;;;4980714;28;20466;-79
2023/03/23 02:18:21;;;;;;;2.50;1.60;;;11.40;99.90;;;;;;4981199;28;20459;-78
2023/03/23 02:21:31;;;;;;;3.27;1.97;;;11.50;99.90;;;;;;4988156;28;20459;-79
2023/03/23 02:24:39;;;;;;;3.63;1.50;;;11.50;99.90;;;;;;4969022;29;20563;-79
2023/03/23 02:27:09;;;;;;;3.40;2.00;;;11.60;99.90;;;;;;4963522;28;20478;-79
2023/03/23 02:30:15;;;;;;;3.20;2.03;;;11.70;99.90;;;;;;4986618;28;20875;-79
2023/03/23 02:33:27;;;;;;;2.93;1.77;;;11.70;99.90;;;;;;4971512;28;20964;-78
2023/03/23 02:35:59;;;;;;;2.77;2.00;;;11.70;99.90;;;;;;4980936;28;20830;-80
2023/03/23 02:38:32;;;;;;;2.93;1.90;;;11.60;99.90;;;;;;4981206;28;20454;-80
2023/03/23 02:41:02;;;;;;;2.77;2.20;;;11.60;99.90;;;;;;4980429;28;20458;-80
2023/03/23 02:43:34;;;;;;;2.90;2.30;;;11.60;99.90;;;;;;4980574;28;20484;-80
2023/03/23 02:46:02;;;;;;;4.60;2.80;;;11.50;99.90;;;;;;4981161;28;20476;-80
2023/03/23 02:48:31;;;;;;;4.93;2.53;;;11.50;99.90;;;;;;4981718;28;20476;-81
2023/03/23 02:51:01;;;;;;;4.50;2.60;;;11.50;99.90;;;;;;4981487;28;20463;-79
2023/03/23 02:53:31;;;;;;;5.43;2.40;;;11.50;99.90;;;;;;4981590;28;20578;-79
2023/03/23 02:55:58;;;;;;;5.03;2.83;;;11.40;99.90;;;;;;4981081;28;20457;-79
2023/03/23 02:58:26;;;;;;;3.23;2.60;;;11.40;99.90;;;;;;4981311;28;20451;-80
2023/03/23 03:00:56;;;;;;;4.10;2.60;;;11.40;99.90;;;;;;4980474;28;20464;-80
2023/03/23 03:03:27;;;;;;;3.20;2.80;;;11.40;99.90;;;;;;4981375;28;20484;-79
2023/03/23 03:06:00;;;;;;;3.60;2.50;;;11.40;99.90;;;;;;4981505;28;20515;-80
2023/03/23 03:08:34;;;;;;;5.00;2.70;;;11.40;99.90;;;;;;4980935;28;20439;-80
2023/03/23 03:11:06;;;;;;;2.73;2.27;;;11.40;99.90;;;;;;4964446;28;20450;-80
2023/03/23 03:13:40;;;;;;;2.57;2.37;;;11.40;99.90;;;;;;4979950;28;20474;-81
2023/03/23 03:16:14;;;;;;;2.57;2.23;;;11.40;99.90;;;;;;4980228;28;20452;-80
2023/03/23 03:18:47;;;;;;;2.63;2.40;;;11.40;99.90;;;;;;4980237;28;20455;-81
2023/03/23 03:21:19;;;;;;;7.57;2.33;;;11.40;99.90;;;;;;4979311;28;20483;-79
2023/03/23 03:23:51;;;;;;;2.93;2.47;;;11.40;99.90;;;;;;4979686;28;20485;-79
2023/03/23 03:26:20;;;;;;;2.70;2.10;;;11.50;99.90;;;;;;4979423;28;20491;-80
2023/03/23 03:28:49;;;;;;;3.50;2.07;;;11.60;99.90;;;;;;4979333;28;20879;-81
2023/03/23 03:31:19;;;;;;;2.97;2.30;;;11.70;99.90;;;;;;4979086;28;20456;-81
2023/03/23 03:33:47;;;;;;;2.43;1.80;;;11.70;99.90;;;;;;4979368;28;20571;-82
2023/03/23 03:36:18;;;;;;;2.87;2.20;;;11.80;99.90;;;;;;4979442;28;20510;-79
2023/03/23 03:38:49;;;;;;;3.97;2.40;;;11.80;99.90;;;;;;4979685;28;20442;-80
2023/03/23 03:41:18;;;;;;;4.17;2.73;;;11.70;99.90;;;;;;4979273;28;20528;-81
2023/03/23 03:43:45;;;;;;;3.60;2.33;;;11.70;99.90;;;;;;4979362;28;20475;-81
2023/03/23 03:46:12;;;;;;;4.30;2.20;;;11.80;99.90;;;;;;4979424;28;20467;-81
2023/03/23 03:48:39;;;;;;;4.90;2.07;;;11.80;99.90;;;;;;4980011;28;20462;-80
2023/03/23 03:51:06;;;;;;;8.17;2.63;;;11.80;99.90;;;;;;4979056;28;20466;-82
2023/03/23 03:53:32;;;;;;;2.60;1.60;;;11.80;99.90;;;;;;4979602;28;20472;-80
2023/03/23 03:56:01;;;;;;;3.10;1.63;;;11.90;99.90;;;;;;4979455;28;20463;-80
2023/03/23 03:58:31;;;;;;;3.27;2.00;;;11.90;99.90;;;;;;4980243;28;20465;-82
2023/03/23 04:00:59;;;;;;;4.57;1.97;;;11.90;99.90;;;;;;4978741;28;20464;-81
2023/03/23 04:03:26;;;;;;;3.80;1.90;;;11.90;99.90;;;;;;4978212;28;20936;-82
2023/03/23 04:05:54;;;;;;;4.50;1.63;;;11.90;99.90;;;;;;4978575;28;20458;-79
2023/03/23 04:08:21;;;;;;;2.73;2.00;;;12.00;99.90;;;;;;4979043;28;20487;-80
2023/03/23 04:10:49;;;;;;;3.40;1.60;;;12.00;99.90;;;;;;4978054;28;20483;-82
2023/03/23 04:13:17;;;;;;;2.50;1.70;;;12.00;99.90;;;;;;4978743;28;20480;-80
2023/03/23 04:15:45;;;;;;;6.43;2.07;;;12.10;99.90;;;;;;4977959;28;20451;-81
2023/03/23 04:18:11;;;;;;;2.80;2.00;;;12.10;99.90;;;;;;4978575;28;20452;-80
2023/03/23 04:20:39;;;;;;;3.60;1.90;;;12.10;99.90;;;;;;4977197;28;20765;-82
2023/03/23 04:23:06;;;;;;;2.70;1.80;;;12.20;99.90;;;;;;4969068;28;20503;-79
2023/03/23 04:25:33;;;;;;;4.50;2.27;;;12.10;99.90;;;;;;4973714;28;20909;-82
2023/03/23 04:28:01;;;;;;;2.77;2.10;;;12.20;99.90;;;;;;4962993;28;20577;-81
2023/03/23 04:30:31;;;;;;;3.70;2.17;;;12.20;99.90;;;;;;4971899;28;20893;-82
2023/03/23 04:33:00;;;;;;;4.23;1.93;;;12.20;99.90;;;;;;4978461;28;20456;-81
2023/03/23 04:35:27;;;;;;;3.67;1.97;;;12.30;99.90;;;;;;5013539;23;20582;-83
2023/03/23 04:37:55;;;;;;;3.20;1.70;;;12.30;99.90;;;;;;5008588;28;20458;-84
2023/03/23 04:40:24;;;;;;;4.57;1.60;;;12.20;99.90;;;;;;4999463;28;21254;-84
2023/03/23 04:42:51;;;;;;;2.90;1.67;;;12.30;99.90;;;;;;5003681;28;20838;-83
2023/03/23 04:45:21;;;;;;;3.83;2.30;;;12.30;99.90;;;;;;4998211;28;20487;-83
2023/03/23 04:47:52;;;;;;;2.50;1.70;;;12.30;99.90;;;;;;4996870;28;20490;-82
2023/03/23 04:50:21;;;;;;;2.93;1.70;;;12.20;99.90;;;;;;4996304;28;20467;-83
2023/03/23 04:52:51;;;;;;;3.60;2.13;;;12.20;99.90;;;;;;4996769;28;20849;-84
2023/03/23 04:55:19;;;;;;;2.07;1.40;;;12.30;99.90;;;;;;4996111;28;20512;-83
2023/03/23 04:57:46;;;;;;;2.57;1.47;;;12.30;99.90;;;;;;4995293;28;20488;-82
2023/03/23 05:00:16;;;;;;;2.30;1.80;;;12.30;99.90;;;;;;4997451;28;20495;-85
2023/03/23 05:02:43;;;;;;;2.37;1.50;;;12.30;99.90;;;;;;4996449;28;20506;-84
2023/03/23 05:05:14;;;;;;;2.97;1.70;;;12.30;99.90;;;;;;4995839;28;20482;-82
2023/03/23 05:07:41;;;;;;;5.10;1.90;;;12.30;99.90;;;;;;4996932;28;20491;-82
2023/03/23 05:10:11;;;;;;;4.30;1.97;;;12.30;99.90;;;;;;4998203;28;20461;-84
2023/03/23 05:12:38;;;;;;;3.07;1.63;;;12.40;99.90;;;;;;4997364;28;20451;-83
2023/03/23 05:15:06;;;;;;;3.30;1.50;;;12.40;99.90;;;;;;4998417;28;20480;-83
2023/03/23 05:17:33;;;;;;;3.30;2.00;;;12.40;99.90;;;;;;4996813;28;20856;-84
2023/03/23 05:20:00;;;;;;;2.90;1.43;;;12.50;99.90;;;;;;4991301;28;20473;-83
2023/03/23 05:22:32;;;;;;;2.83;1.47;;;12.50;99.90;;;;;;4988121;28;20967;-84
2023/03/23 05:24:58;;;;;;;3.53;1.43;;;12.60;99.90;;;;;;4997789;28;20992;-83
2023/03/23 05:27:27;;;;;;;3.27;1.53;;;12.50;99.90;;;;;;4997586;28;20525;-84
2023/03/23 05:29:54;;;;;;;2.77;1.63;;;12.60;99.90;;;;;;4996555;28;20549;-84
2023/03/23 05:32:29;;;;;;;3.03;2.07;;;12.60;99.90;;;;;;5003211;28;20450;-82
2023/03/23 05:34:56;;;;;;;2.87;1.60;;;12.50;99.90;;;;;;5003705;28;20488;-84
2023/03/23 05:37:23;;;;;;;2.10;1.70;;;12.60;99.90;;;;;;5004117;28;20530;-82
2023/03/23 05:39:53;;;;;;;2.47;1.63;;;12.50;99.90;;;;;;5004733;28;20537;-83
2023/03/23 05:42:20;;;;;;;2.53;1.73;;;12.50;99.90;;;;;;5003621;28;20460;-84
2023/03/23 05:44:47;;;;;;;2.90;2.30;;;12.60;99.90;;;;;;5004635;28;20477;-82
2023/03/23 05:47:14;;;;;;;3.00;1.60;;;12.60;99.90;;;;;;5009255;28;20581;-82
2023/03/23 05:49:41;;;;;;;3.73;1.77;;;12.60;99.90;;;;;;5012658;28;20543;-84
2023/03/23 05:52:08;;;;;;;2.30;1.50;;;12.50;99.90;;;;;;5009463;28;20466;-83
2023/03/23 05:54:35;;;;;;;3.00;1.50;;;12.60;99.90;;;;;;5007572;28;20474;-83
2023/03/23 05:57:05;;;;;;;2.63;1.90;;;12.60;99.90;;;;;;5009821;28;20479;-83
2023/03/23 05:59:33;;;;;;;2.83;1.30;;;12.60;99.90;;;;;;5008737;28;20451;-83
2023/03/23 06:02:00;;;;;;;3.60;2.07;;;12.60;99.90;;;;;;5007969;28;20458;-83
2023/03/23 06:04:27;;;;;;;3.40;1.77;;;12.60;99.90;;;;;;5008364;28;20507;-83
2023/03/23 06:06:54;;;;;;;2.80;1.60;;;12.60;99.90;;;;;;5008961;28;20473;-83
2023/03/23 06:09:23;;;;;;;2.93;1.77;;;12.70;99.90;;;;;;5009453;28;20500;-83
2023/03/23 06:11:50;;;;;;;3.53;2.20;;;12.70;99.90;;;;;;5015339;28;20445;-83
2023/03/23 06:14:18;;;;;;;2.53;2.00;;;12.70;99.90;;;;;;5004796;28;20475;-82
2023/03/23 06:16:45;;;;;;;5.67;3.07;;;12.70;99.90;;;;;;5001066;28;20452;-84
2023/03/23 06:19:12;;;;;;;3.10;1.40;;;12.70;99.90;;;;;;5000650;28;20453;-84
2023/03/23 06:21:39;;;;;;;2.93;1.60;;;12.70;99.90;;;;;;5000645;28;20465;-82
2023/03/23 06:24:06;;;;;;;2.33;1.50;;;12.70;99.90;;;;;;4995909;28;20564;-80
2023/03/23 06:26:36;;;;;;;3.10;1.73;;;12.70;99.90;;;;;;4997767;28;20457;-80
2023/03/23 06:29:03;;;;;;;2.87;2.27;;;12.80;99.90;;;;;;5000810;28;21040;-80
2023/03/23 06:31:34;;;;;;;3.53;2.13;;;12.80;99.90;;;;;;4999492;28;20468;-80
2023/03/23 06:34:01;;;;;;;2.70;1.53;;;12.90;99.90;;;;;;5000448;28;20491;-80
2023/03/23 06:36:28;;;;;;;4.50;1.90;;;12.90;99.90;;;;;;5000645;28;20461;-80
2023/03/23 06:38:55;;;;;;;2.97;2.00;;;12.90;99.90;;;;;;5000291;28;20456;-80
2023/03/23 06:41:22;;;;;;;3.30;1.80;;;12.90;99.90;;;;;;4999811;28;20955;-80
2023/03/23 06:43:48;;;;;;;5.30;2.33;;;13.00;99.90;;;;;;4997748;28;20496;-82
2023/03/23 06:46:15;;;;;;;2.40;1.73;;;13.10;99.90;;;;;;4997421;28;20453;-81
2023/03/23 06:48:43;;;;;;;2.57;1.60;;;13.10;99.90;;;;;;4997347;28;20499;-80
2023/03/23 06:51:10;;;;;;;3.03;1.70;;;13.10;99.90;;;;;;4997342;28;20459;-78
2023/03/23 06:53:37;;;;;;;3.20;1.90;;;13.20;99.90;;;;;;4997781;28;20516;-80
2023/03/23 06:56:04;;;;;;;2.83;1.80;;;13.20;99.90;;;;;;4996304;28;20484;-79
2023/03/23 06:58:31;;;;;;;3.67;1.90;;;13.20;99.90;;;;;;4996545;28;20456;-81
2023/03/23 07:00:58;;;;;;;4.20;2.03;;;13.20;99.90;;;;;;4994398;28;20464;-80
2023/03/23 07:03:25;;;;;;;4.13;1.80;;;13.20;99.90;;;;;;4982754;28;20806;-80
2023/03/23 07:05:54;;;;;;;5.40;2.03;;;13.30;99.90;;;;;;4995936;28;20514;-79
2023/03/23 07:08:21;;;;;;;3.80;1.90;;;13.30;99.90;;;;;;4994437;28;20498;-80
2023/03/23 07:10:49;;;;;;;7.03;2.37;;;13.40;99.90;;;;;;4994943;28;20457;-81
2023/03/23 07:13:16;;;;;;;2.57;1.70;;;13.40;99.90;;;;;;4985674;28;20494;-81
2023/03/23 07:15:43;;;;;;;2.93;1.90;;;13.40;99.90;;;;;;4983731;28;20516;-81
2023/03/23 07:18:10;;;;;;;4.43;1.80;;;13.50;99.90;;;;;;4996806;28;20516;-79
2023/03/23 07:20:37;;;;;;;3.60;2.67;;;13.50;99.90;;;;;;4996903;28;20847;-80
2023/03/23 07:23:06;;;;;;;7.23;2.53;;;13.50;99.90;;;;;;4983887;28;20459;-80
2023/03/23 07:25:33;;;;;;;5.20;1.40;;;13.40;99.90;;;;;;4988259;28;21017;-81
2023/03/23 07:28:00;;;;;;;3.70;1.73;;;13.30;99.90;;;;;;4997475;28;20541;-80
2023/03/23 07:30:28;;;;;;;3.33;2.33;;;13.40;99.90;;;;;;4998934;28;20464;-83
2023/03/23 07:32:55;;;;;;;4.93;1.50;;;13.50;99.90;;;;;;5004029;28;20466;-82
2023/03/23 07:35:22;;;;;;;4.30;1.40;;;13.50;99.90;;;;;;4995761;28;20566;-83
2023/03/23 07:37:49;;;;;;;4.57;1.50;;;13.60;99.90;;;;;;4982257;28;20515;-82
2023/03/23 07:40:18;;;;;;;5.20;1.90;;;13.80;99.90;;;;;;4997369;28;20449;-82
2023/03/23 07:42:49;;;;;;;5.80;2.63;;;13.70;99.90;;;;;;4998245;28;20519;-84
2023/03/23 07:45:16;;;;;;;7.00;1.70;;;13.70;99.90;;;;;;4981643;28;20472;-81
2023/03/23 07:47:43;;;;;;;6.77;1.70;;;13.70;99.90;;;;;;4999362;28;20494;-81
2023/03/23 07:50:11;;;;;;;4.70;2.30;;;13.70;99.90;;;;;;4983323;28;20466;-82
2023/03/23 07:52:39;;;;;;;3.57;1.40;;;13.70;99.90;;;;;;5000274;28;20447;-83
2023/03/23 07:55:08;;;;;;;4.47;1.70;;;13.70;99.90;;;;;;5002749;28;20477;-82
2023/03/23 07:57:37;;;;;;;8.23;1.70;;;13.70;99.90;;;;;;5000085;28;20467;-79
2023/03/23 08:00:13;;;;;;;5.00;2.53;;;13.80;99.90;;;;;;4979834;28;20469;-81
2023/03/23 08:02:41;;;;;;;5.00;1.80;;;13.80;99.90;;;;;;4991282;28;20826;-82
2023/03/23 08:05:08;;;;;;;3.23;1.53;;;13.90;99.90;;;;;;4999757;28;20526;-81
2023/03/23 08:07:35;;;;;;;2.97;1.93;;;13.80;99.90;;;;;;5001004;28;20462;-83
2023/03/23 08:10:03;;;;;;;2.13;1.50;;;13.70;99.90;;;;;;4993377;28;20451;-83
2023/03/23 08:12:29;;;;;;;2.50;1.47;;;13.80;99.90;;;;;;5002198;28;20477;-83
2023/03/23 08:14:59;;;;;;;5.60;1.73;;;13.90;99.90;;;;;;4997045;28;20542;-84
2023/03/23 08:17:25;;;;;;;6.53;1.50;;;14.00;99.90;;;;;;4998851;28;20471;-80
2023/03/23 08:19:52;;;;;;;3.53;1.50;;;13.90;99.90;;;;;;4997300;28;20491;-82
2023/03/23 08:22:20;;;;;;;4.67;1.60;;;13.90;99.90;;;;;;4996802;28;20448;-82
2023/03/23 08:24:48;;;;;;;3.60;1.57;;;13.90;99.90;;;;;;4998676;28;20478;-83
2023/03/23 08:27:15;;;;;;;3.10;1.50;;;13.80;99.90;;;;;;4994478;28;20495;-82
2023/03/23 08:29:41;;;;;;;3.93;1.80;;;13.90;99.90;;;;;;4998056;28;20565;-83
2023/03/23 08:32:10;;;;;;;2.83;1.50;;;13.90;99.90;;;;;;4988719;28;20464;-84
2023/03/23 08:34:37;;;;;;;2.33;1.10;;;14.00;99.90;;;;;;4988497;28;20485;-83
2023/03/23 08:37:04;;;;;;;5.73;1.60;;;14.20;99.90;;;;;;4999616;28;20448;-83
2023/03/23 08:39:31;;;;;;;2.67;1.47;;;14.20;99.90;;;;;;4991923;28;20451;-83
2023/03/23 08:41:58;;;;;;;2.90;1.30;;;14.30;99.90;;;;;;4986708;28;20569;-82
2023/03/23 08:44:25;;;;;;;3.83;1.30;;;14.60;99.90;;;;;;4996428;28;20565;-84
2023/03/23 08:46:56;;;;;;;7.40;1.43;;;14.60;99.90;;;;;;4991635;28;20484;-84
2023/03/23 08:49:25;;;;;;;3.60;1.30;;;14.60;99.90;;;;;;5001410;28;20553;-81
2023/03/23 08:51:52;;;;;;;4.30;1.20;;;14.70;99.90;;;;;;5001681;28;20493;-83
2023/03/23 08:54:20;;;;;;;2.70;1.20;;;14.70;99.90;;;;;;5001978;28;20485;-82
2023/03/23 08:56:47;;;;;;;2.90;1.43;;;14.80;99.90;;;;;;4999817;28;20462;-83
2023/03/23 08:59:14;;;;;;;3.13;1.20;;;14.70;99.90;;;;;;4994626;28;20494;-83
2023/03/23 09:01:41;;;;;;;4.53;1.50;;;14.90;99.90;;;;;;4994420;28;20528;-85
2023/03/23 09:04:09;;;;;;;4.90;1.53;;;15.00;99.90;;;;;;5000721;28;20515;-83
2023/03/23 09:06:38;;;;;;;5.40;1.50;;;15.10;99.90;;;;;;4998457;28;20463;-82
2023/03/23 09:09:06;;;;;;;6.90;1.60;;;14.80;99.90;;;;;;4998772;28;20523;-83
2023/03/23 09:11:34;;;;;;;6.67;1.00;;;14.60;99.90;;;;;;4998240;28;20973;-83
2023/03/23 09:14:02;;;;;;;4.17;1.50;;;14.70;99.90;;;;;;4990175;28;20452;-82
2023/03/23 09:16:28;;;;;;;7.37;1.60;;;14.80;99.90;;;;;;4993833;28;20458;-82
2023/03/23 09:18:56;;;;;;;3.90;1.50;;;14.80;99.90;;;;;;5008067;28;20469;-86
2023/03/23 09:21:23;;;;;;;8.57;2.00;;;14.70;99.90;;;;;;4989737;28;20456;-84
2023/03/23 09:23:52;;;;;;;2.53;1.50;;;14.80;99.90;;;;;;4985404;28;20465;-84
2023/03/23 09:26:19;;;;;;;7.00;1.80;;;14.70;99.90;;;;;;5003248;28;20969;-85
2023/03/23 09:28:46;;;;;;;4.43;2.10;;;14.60;99.90;;;;;;5002999;28;20479;-82
2023/03/23 09:31:13;;;;;;;3.20;1.70;;;14.40;99.90;;;;;;4995989;28;20480;-83
2023/03/23 09:33:40;;;;;;;5.30;1.87;;;14.40;99.90;;;;;;4994011;28;20457;-84
2023/03/23 09:36:12;;;;;;;4.50;1.73;;;14.20;99.90;;;;;;5002187;28;21081;-83
2023/03/23 09:38:41;;;;;;;2.90;1.20;;;14.20;99.90;;;;;;4998190;28;20454;-83
2023/03/23 09:41:17;;;;;;;5.00;1.73;;;14.40;99.90;;;;;;4982787;28;20451;-83
2023/03/23 09:43:59;;;;;;;3.53;2.20;;;14.40;99.90;;;;;;4996760;28;20562;-84
2023/03/23 09:46:36;;;;;;;3.80;1.43;;;14.60;99.90;;;;;;5001131;28;20455;-82
2023/03/23 09:49:10;;;;;;;5.33;1.73;;;14.50;99.90;;;;;;4995911;28;20541;-82
2023/03/23 09:51:43;;;;;;;6.50;1.40;;;14.50;99.90;;;;;;5001051;28;20478;-82
2023/03/23 09:54:17;;;;;;;4.00;1.33;;;14.50;99.90;;;;;;5000494;28;20502;-82
2023/03/23 09:56:47;;;;;;;5.93;1.57;;;14.50;99.90;;;;;;4992542;28;20557;-84
2023/03/23 09:59:20;;;;;;;6.67;2.00;;;14.40;99.90;;;;;;5000465;28;20449;-83
2023/03/23 10:01:49;;;;;;;5.00;1.73;;;14.30;99.90;;;;;;5001221;28;20463;-83
2023/03/23 10:04:27;;;;;;;7.23;1.93;;;14.20;99.90;;;;;;4998288;28;20494;-83
2023/03/23 10:07:00;;;;;;;2.77;1.30;;;14.30;99.90;;;;;;5000820;28;20488;-82
2023/03/23 10:09:27;;;;;;;6.37;1.83;;;14.00;99.90;;;;;;4998153;28;20497;-82
2023/03/23 10:12:05;;;;;;;3.07;1.03;;;13.60;99.90;;;;;;4999793;28;20466;-82
2023/03/23 10:14:59;;;;;;;6.37;1.50;;;12.90;99.90;;;;;;5001267;28;20477;-82
2023/03/23 10:17:29;;;;;;;6.00;1.87;;;12.20;99.90;;;;;;5002199;28;20450;-82
2023/03/23 10:20:07;;;;;;;5.03;1.70;;;11.80;99.90;;;;;;5003961;28;20460;-82
2023/03/23 10:22:40;;;;;;;2.63;1.53;;;11.60;99.90;;;;;;5001075;28;20552;-82
2023/03/23 10:25:16;;;;;;;5.93;1.83;;;11.40;99.90;;;;;;5002083;28;20482;-82
2023/03/23 10:27:51;;;;;;;7.73;2.27;;;11.30;99.90;;;;;;4999348;28;20461;-82
2023/03/23 10:30:23;;;;;;;7.60;2.70;;;11.10;99.90;;;;;;4999497;28;20479;-82
2023/03/23 10:32:54;;;;;;;5.97;2.20;;;11.10;99.90;;;;;;4999901;28;20451;-81
2023/03/23 10:35:26;;;;;;;2.70;1.80;;;11.20;99.90;;;;;;5021577;23;20502;-80
2023/03/23 10:37:57;;;;;;;6.63;1.87;;;11.20;99.90;;;;;;5002307;28;20446;-80
2023/03/23 10:40:29;;;;;;;4.33;2.00;;;11.30;99.90;;;;;;5001772;28;20582;-82
2023/03/23 10:42:58;;;;;;;8.97;2.00;;;11.40;99.90;;;;;;5002270;28;20528;-81
2023/03/23 10:45:29;;;;;;;5.80;3.30;;;11.40;99.90;;;;;;4992003;28;20492;-82
2023/03/23 10:48:00;;;;;;;49.80;24.13;;;11.40;99.90;;;;;;4982119;28;20468;-81
2023/03/23 10:50:30;;;;;;;85.00;36.60;;;11.50;99.90;;;;;;4982135;28;20518;-80
2023/03/23 10:52:59;;;;;;;7.67;2.00;;;11.60;99.90;;;;;;4981882;28;20460;-84
2023/03/23 10:55:38;;;;;;;4.43;1.23;;;12.00;99.90;;;;;;4981423;28;20488;-80
2023/03/23 10:58:09;;;;;;;4.43;1.80;;;12.00;99.90;;;;;;4980956;28;20915;-81
2023/03/23 11:00:42;;;;;;;3.63;1.70;;;11.80;99.90;;;;;;4990664;28;20532;-82
2023/03/23 11:03:26;;;;;;;2.57;1.70;;;11.70;99.90;;;;;;4993288;28;20470;-81
2023/03/23 11:05:57;;;;;;;3.90;1.30;;;11.60;99.90;;;;;;4992700;28;20471;-85
2023/03/23 11:08:26;;;;;;;6.03;3.00;;;12.20;99.90;;;;;;4993572;28;20466;-80
2023/03/23 11:10:55;;;;;;;4.70;1.47;;;12.80;99.90;;;;;;4993638;28;20481;-81
2023/03/23 11:13:28;;;;;;;3.90;1.50;;;12.80;99.90;;;;;;4993617;28;20458;-80
2023/03/23 11:15:56;;;;;;;4.30;1.67;;;12.40;99.90;;;;;;4994851;28;20476;-82
2023/03/23 11:18:26;;;;;;;2.57;1.30;;;12.10;99.90;;;;;;4998222;28;20449;-83
2023/03/23 11:20:56;;;;;;;2.50;1.17;;;11.90;99.90;;;;;;4998077;28;20457;-83
2023/03/23 11:23:26;;;;;;;3.10;1.40;;;11.70;99.90;;;;;;4993514;28;20451;-80
2023/03/23 11:25:57;;;;;;;3.80;1.53;;;11.60;99.90;;;;;;4990328;28;20471;-81
2023/03/23 11:28:30;;;;;;;2.13;1.37;;;11.40;99.90;;;;;;4990038;28;20458;-80
2023/03/23 11:30:59;;;;;;;6.13;1.70;;;11.40;99.90;;;;;;4990454;28;20442;-81
2023/03/23 11:33:29;;;;;;;3.50;1.43;;;11.20;99.90;;;;;;4990862;28;20519;-82
2023/03/23 11:35:56;;;;;;;4.67;1.70;;;11.10;99.90;;;;;;4990340;28;20515;-83
2023/03/23 11:38:27;;;;;;;2.93;1.60;;;11.20;99.90;;;;;;4981878;28;20471;-80
2023/03/23 11:40:54;;;;;;;4.13;1.47;;;11.20;99.90;;;;;;4969415;29;20453;-81
2023/03/23 11:43:24;;;;;;;2.67;1.80;;;11.20;99.90;;;;;;4981349;28;20514;-82
2023/03/23 11:46:03;;;;;;;5.30;2.37;;;11.30;99.90;;;;;;4988871;28;20482;-80
2023/03/23 11:48:39;;;;;;;6.43;2.87;;;11.40;99.90;;;;;;4989400;28;20459;-84
2023/03/23 11:51:12;;;;;;;3.30;2.80;;;11.60;99.90;;;;;;4989140;28;20831;-82
2023/03/23 11:53:49;;;;;;;5.20;2.90;;;11.60;99.90;;;;;;4989695;28;20542;-80
2023/03/23 11:56:24;;;;;;;5.10;3.40;;;11.60;99.90;;;;;;4990316;28;20579;-84
2023/03/23 11:58:52;;;;;;;3.97;3.20;;;11.70;99.90;;;;;;4990410;28;20440;-81
2023/03/23 12:01:46;;;;;;;8.10;4.00;;;11.70;99.90;;;;;;4989741;28;20479;-81
2023/03/23 12:04:35;;;;;;;9.43;5.30;;;11.70;99.90;;;;;;4975211;28;20465;-81
2023/03/23 12:07:12;;;;;;;10.73;6.13;;;11.50;99.90;;;;;;4988629;28;20905;-80
2023/03/23 12:09:48;;;;;;;7.47;3.67;;;11.70;99.90;;;;;;4986363;28;20577;-82
2023/03/23 12:12:24;;;;;;;6.77;3.93;;;12.10;99.90;;;;;;4983481;28;20926;-84
2023/03/23 12:14:59;;;;;;;3.13;2.37;;;12.30;99.90;;;;;;4966134;28;20510;-82
2023/03/23 12:17:41;;;;;;;4.33;1.90;;;12.20;99.90;;;;;;4966428;29;20444;-81
2023/03/23 12:20:21;;;;;;;3.50;1.67;;;12.20;99.90;;;;;;4969757;29;20459;-81
2023/03/23 12:23:04;;;;;;;4.27;1.87;;;11.90;99.90;;;;;;4979874;28;20452;-82
2023/03/23 12:26:07;;;;;;;4.20;1.87;;;11.80;99.90;;;;;;4987579;28;20472;-82
2023/03/23 12:28:46;;;;;;;4.33;1.87;;;11.70;99.90;;;;;;4984812;28;20459;-80
2023/03/23 12:31:20;;;;;;;4.07;1.30;;;11.80;99.90;;;;;;4985790;28;20435;-85
2023/03/23 12:33:56;;;;;;;2.33;1.60;;;11.80;99.90;;;;;;4987080;28;20454;-84
2023/03/23 12:36:35;;;;;;;2.80;2.43;;;11.70;99.90;;;;;;4988421;28;20493;-81
2023/03/23 12:39:31;;;;;;;3.93;2.97;;;11.60;99.90;;;;;;4987908;28;20520;-84
2023/03/23 12:42:04;;;;;;;3.93;2.47;;;11.60;99.90;;;;;;4985738;28;20488;-81
2023/03/23 12:44:40;;;;;;;2.90;2.00;;;11.70;99.90;;;;;;4986922;28;20555;-82
2023/03/23 12:47:31;;;;;;;4.33;3.13;;;11.80;99.90;;;;;;4986980;28;20963;-82
2023/03/23 12:50:03;;;;;;;2.73;2.10;;;11.90;99.90;;;;;;4987515;28;20545;-82
2023/03/23 12:52:36;;;;;;;10.63;7.00;;;12.10;99.90;;;;;;4985522;28;20460;-82
2023/03/23 12:55:08;;;;;;;8.50;3.90;;;12.00;99.90;;;;;;4981584;28;20925;-83
2023/03/23 12:57:41;;;;;;;5.40;4.27;;;12.10;99.90;;;;;;4984665;28;20476;-82
2023/03/23 13:00:19;;;;;;;2.50;2.07;;;12.10;99.90;;;;;;4979538;28;20473;-81
2023/03/23 13:02:51;;;;;;;4.43;1.80;;;12.20;99.90;;;;;;4978741;28;20454;-81